sensor_id;sensor_type;location;lat;lon;timestamp;pressure;altitude;pressure_sealevel;temperature;humidity
66664;BME280;59683;51.428;-1.994;2024-02-15T00:00:55;100407.75;;;11.78;100.00
66664;BME280;59683;51.428;-1.994;2024-02-15T00:03:23;100406.91;;;11.78;100.00
66664;BME280;59683;51.428;-1.994;2024-02-15T00:05:48;100407.75;;;11.78;100.00
66664;BME280;59683;51.428;-1.994;2024-02-15T00:08:14;100410.25;;;11.80;100.00
66664;BME280;59683;51.428;-1.994;2024-02-15T00:10:40;100405.19;;;11.77;100.00
66664;BME280;59683;51.428;-1.994;2024-02-15T00:13:05;100405.91;;;11.79;100.00
66664;BME280;59683;51.428;-1.994;2024-02-15T00:15:31;100390.28;;;11.76;100.00
66664;BME280;59683;51.428;-1.994;2024-02-15T00:17:57;100393.66;;;11.78;100.00
66664;BME280;59683;51.428;-1.994;2024-02-15T00:20:22;100411.91;;;11.81;100.00
66664;BME280;59683;51.428;-1.994;2024-02-15T00:22:48;100420.72;;;11.81;100.00
66664;BME280;59683;51.428;-1.994;2024-02-15T00:25:14;100426.03;;;11.81;100.00
66664;BME280;59683;51.428;-1.994;2024-02-15T00:27:40;100423.50;;;11.80;100.00
66664;BME280;59683;51.428;-1.994;2024-02-15T00:30:05;100422.81;;;11.78;100.00
66664;BME280;59683;51.428;-1.994;2024-02-15T00:32:33;100413.88;;;11.79;100.00
66664;BME280;59683;51.428;-1.994;2024-02-15T00:34:58;100394.34;;;11.80;100.00
66664;BME280;59683;51.428;-1.994;2024-02-15T00:37:23;100400.75;;;11.77;100.00
66664;BME280;59683;51.428;-1.994;2024-02-15T00:39:49;100380.38;;;11.78;100.00
66664;BME280;59683;51.428;-1.994;2024-02-15T00:42:14;100393.75;;;11.76;100.00
66664;BME280;59683;51.428;-1.994;2024-02-15T00:44:41;100402.69;;;11.75;100.00
66664;BME280;59683;51.428;-1.994;2024-02-15T00:47:07;100404.94;;;11.80;100.00
66664;BME280;59683;51.428;-1.994;2024-02-15T00:49:33;100399.06;;;11.76;100.00
66664;BME280;59683;51.428;-1.994;2024-02-15T00:51:59;100399.91;;;11.77;100.00
66664;BME280;59683;51.428;-1.994;2024-02-15T00:54:24;100408.84;;;11.76;100.00
66664;BME280;59683;51.428;-1.994;2024-02-15T00:56:50;100392.81;;;11.77;100.00
66664;BME280;59683;51.428;-1.994;2024-02-15T00:59:16;100396.69;;;11.73;100.00
66664;BME280;59683;51.428;-1.994;2024-02-15T01:01:42;100401.72;;;11.76;100.00
66664;BME280;59683;51.428;-1.994;2024-02-15T01:04:07;100402.97;;;11.72;100.00
66664;BME280;59683;51.428;-1.994;2024-02-15T01:06:32;100395.16;;;11.71;100.00
66664;BME280;59683;51.428;-1.994;2024-02-15T01:08:59;100377.28;;;11.73;100.00
66664;BME280;59683;51.428;-1.994;2024-02-15T01:11:27;100371.16;;;11.72;100.00
66664;BME280;59683;51.428;-1.994;2024-02-15T01:13:53;100357.06;;;11.72;100.00
66664;BME280;59683;51.428;-1.994;2024-02-15T01:16:19;100364.19;;;11.71;100.00
66664;BME280;59683;51.428;-1.994;2024-02-15T01:18:47;100366.69;;;11.73;100.00
66664;BME280;59683;51.428;-1.994;2024-02-15T01:21:12;100358.59;;;11.74;100.00
66664;BME280;59683;51.428;-1.994;2024-02-15T01:23:38;100348.13;;;11.73;100.00
66664;BME280;59683;51.428;-1.994;2024-02-15T01:26:03;100349.94;;;11.72;100.00
66664;BME280;59683;51.428;-1.994;2024-02-15T01:28:30;100338.91;;;11.67;100.00
66664;BME280;59683;51.428;-1.994;2024-02-15T01:30:55;100337.78;;;11.70;100.00
66664;BME280;59683;51.428;-1.994;2024-02-15T01:33:20;100334.28;;;11.69;100.00
66664;BME280;59683;51.428;-1.994;2024-02-15T01:35:46;100331.78;;;11.67;100.00
66664;BME280;59683;51.428;-1.994;2024-02-15T01:38:11;100329.81;;;11.70;100.00
66664;BME280;59683;51.428;-1.994;2024-02-15T01:40:37;100330.97;;;11.67;100.00
66664;BME280;59683;51.428;-1.994;2024-02-15T01:43:03;100326.50;;;11.67;100.00
66664;BME280;59683;51.428;-1.994;2024-02-15T01:45:29;100325.41;;;11.70;100.00
66664;BME280;59683;51.428;-1.994;2024-02-15T01:47:54;100318.38;;;11.69;100.00
66664;BME280;59683;51.428;-1.994;2024-02-15T01:50:21;100327.06;;;11.71;100.00
66664;BME280;59683;51.428;-1.994;2024-02-15T01:52:49;100335.69;;;11.73;100.00
66664;BME280;59683;51.428;-1.994;2024-02-15T01:55:17;100336.16;;;11.78;100.00
66664;BME280;59683;51.428;-1.994;2024-02-15T01:57:48;100330.56;;;11.81;100.00
66664;BME280;59683;51.428;-1.994;2024-02-15T02:00:17;100331.53;;;11.80;100.00
66664;BME280;59683;51.428;-1.994;2024-02-15T02:02:44;100319.09;;;11.81;100.00
66664;BME280;59683;51.428;-1.994;2024-02-15T02:05:10;100318.88;;;11.84;100.00
66664;BME280;59683;51.428;-1.994;2024-02-15T02:07:35;100322.34;;;11.84;100.00
66664;BME280;59683;51.428;-1.994;2024-02-15T02:10:02;100320.69;;;11.83;100.00
66664;BME280;59683;51.428;-1.994;2024-02-15T02:12:27;100316.34;;;11.82;100.00
66664;BME280;59683;51.428;-1.994;2024-02-15T02:14:56;100319.00;;;11.82;100.00
66664;BME280;59683;51.428;-1.994;2024-02-15T02:17:21;100307.81;;;11.79;100.00
66664;BME280;59683;51.428;-1.994;2024-02-15T02:19:47;100311.44;;;11.78;100.00
66664;BME280;59683;51.428;-1.994;2024-02-15T02:22:16;100299.03;;;11.78;100.00
66664;BME280;59683;51.428;-1.994;2024-02-15T02:25:09;100299.59;;;11.82;100.00
66664;BME280;59683;51.428;-1.994;2024-02-15T02:27:38;100301.13;;;11.84;100.00
66664;BME280;59683;51.428;-1.994;2024-02-15T02:30:21;100302.00;;;11.85;100.00
66664;BME280;59683;51.428;-1.994;2024-02-15T02:32:48;100297.53;;;11.85;100.00
66664;BME280;59683;51.428;-1.994;2024-02-15T02:35:13;100293.91;;;11.86;100.00
66664;BME280;59683;51.428;-1.994;2024-02-15T02:37:41;100295.56;;;11.87;100.00
66664;BME280;59683;51.428;-1.994;2024-02-15T02:40:08;100282.19;;;11.89;100.00
66664;BME280;59683;51.428;-1.994;2024-02-15T02:42:47;100290.72;;;11.93;100.00
66664;BME280;59683;51.428;-1.994;2024-02-15T02:45:13;100281.50;;;11.97;100.00
66664;BME280;59683;51.428;-1.994;2024-02-15T02:47:38;100279.53;;;11.99;100.00
66664;BME280;59683;51.428;-1.994;2024-02-15T02:50:04;100277.69;;;11.99;100.00
66664;BME280;59683;51.428;-1.994;2024-02-15T02:52:30;100279.25;;;12.02;100.00
66664;BME280;59683;51.428;-1.994;2024-02-15T02:54:55;100278.16;;;12.04;100.00
66664;BME280;59683;51.428;-1.994;2024-02-15T02:57:21;100290.69;;;12.02;100.00
66664;BME280;59683;51.428;-1.994;2024-02-15T02:59:46;100281.91;;;12.02;100.00
66664;BME280;59683;51.428;-1.994;2024-02-15T03:02:12;100280.66;;;12.06;100.00
66664;BME280;59683;51.428;-1.994;2024-02-15T03:04:38;100277.31;;;12.04;100.00
66664;BME280;59683;51.428;-1.994;2024-02-15T03:07:05;100282.31;;;12.07;100.00
66664;BME280;59683;51.428;-1.994;2024-02-15T03:09:30;100271.56;;;12.08;100.00
66664;BME280;59683;51.428;-1.994;2024-02-15T03:11:56;100276.72;;;12.10;100.00
66664;BME280;59683;51.428;-1.994;2024-02-15T03:14:22;100282.03;;;12.10;100.00
66664;BME280;59683;51.428;-1.994;2024-02-15T03:16:47;100279.13;;;12.13;100.00
66664;BME280;59683;51.428;-1.994;2024-02-15T03:19:13;100279.66;;;12.17;100.00
66664;BME280;59683;51.428;-1.994;2024-02-15T03:21:38;100271.88;;;12.15;100.00
66664;BME280;59683;51.428;-1.994;2024-02-15T03:24:04;100262.75;;;12.18;100.00
66664;BME280;59683;51.428;-1.994;2024-02-15T03:26:30;100271.28;;;12.21;100.00
66664;BME280;59683;51.428;-1.994;2024-02-15T03:28:58;100260.38;;;12.24;100.00
66664;BME280;59683;51.428;-1.994;2024-02-15T03:31:24;100256.06;;;12.23;100.00
66664;BME280;59683;51.428;-1.994;2024-02-15T03:33:49;100255.09;;;12.24;100.00
66664;BME280;59683;51.428;-1.994;2024-02-15T03:36:16;100253.41;;;12.23;100.00
66664;BME280;59683;51.428;-1.994;2024-02-15T03:38:43;100239.88;;;12.26;100.00
66664;BME280;59683;51.428;-1.994;2024-02-15T03:41:10;100225.75;;;12.26;100.00
66664;BME280;59683;51.428;-1.994;2024-02-15T03:43:35;100225.50;;;12.19;100.00
66664;BME280;59683;51.428;-1.994;2024-02-15T03:46:01;100230.38;;;12.24;100.00
66664;BME280;59683;51.428;-1.994;2024-02-15T03:48:26;100221.97;;;12.28;100.00
66664;BME280;59683;51.428;-1.994;2024-02-15T03:50:51;100233.31;;;12.30;100.00
66664;BME280;59683;51.428;-1.994;2024-02-15T03:53:17;100229.50;;;12.33;100.00
66664;BME280;59683;51.428;-1.994;2024-02-15T03:55:42;100223.91;;;12.36;100.00
66664;BME280;59683;51.428;-1.994;2024-02-15T03:58:08;100217.50;;;12.38;100.00
66664;BME280;59683;51.428;-1.994;2024-02-15T04:00:34;100228.50;;;12.44;100.00
66664;BME280;59683;51.428;-1.994;2024-02-15T04:02:59;100229.34;;;12.44;100.00
66664;BME280;59683;51.428;-1.994;2024-02-15T04:05:26;100223.19;;;12.44;100.00
66664;BME280;59683;51.428;-1.994;2024-02-15T04:07:51;100223.75;;;12.47;100.00
66664;BME280;59683;51.428;-1.994;2024-02-15T04:10:18;100224.31;;;12.51;100.00
66664;BME280;59683;51.428;-1.994;2024-02-15T04:12:44;100221.38;;;12.54;100.00
66664;BME280;59683;51.428;-1.994;2024-02-15T04:15:09;100230.88;;;12.56;100.00
66664;BME280;59683;51.428;-1.994;2024-02-15T04:17:39;100234.19;;;12.58;100.00
66664;BME280;59683;51.428;-1.994;2024-02-15T04:20:06;100243.81;;;12.59;100.00
66664;BME280;59683;51.428;-1.994;2024-02-15T04:22:32;100230.81;;;12.66;100.00
66664;BME280;59683;51.428;-1.994;2024-02-15T04:25:02;100233.47;;;12.66;100.00
66664;BME280;59683;51.428;-1.994;2024-02-15T04:27:28;100237.38;;;12.72;100.00
66664;BME280;59683;51.428;-1.994;2024-02-15T04:29:53;100237.94;;;12.75;100.00
66664;BME280;59683;51.428;-1.994;2024-02-15T04:32:19;100243.91;;;12.77;100.00
66664;BME280;59683;51.428;-1.994;2024-02-15T04:34:44;100240.16;;;12.80;100.00
66664;BME280;59683;51.428;-1.994;2024-02-15T04:37:12;100238.47;;;12.79;100.00
66664;BME280;59683;51.428;-1.994;2024-02-15T04:39:38;100241.81;;;12.81;100.00
66664;BME280;59683;51.428;-1.994;2024-02-15T04:42:04;100236.34;;;12.82;100.00
66664;BME280;59683;51.428;-1.994;2024-02-15T04:44:31;100233.84;;;12.81;100.00
66664;BME280;59683;51.428;-1.994;2024-02-15T04:47:00;100247.66;;;12.84;100.00
66664;BME280;59683;51.428;-1.994;2024-02-15T04:49:26;100239.97;;;12.91;100.00
66664;BME280;59683;51.428;-1.994;2024-02-15T04:51:54;100230.16;;;12.92;100.00
66664;BME280;59683;51.428;-1.994;2024-02-15T04:54:19;100236.47;;;12.91;100.00
66664;BME280;59683;51.428;-1.994;2024-02-15T04:56:45;100244.44;;;12.91;100.00
66664;BME280;59683;51.428;-1.994;2024-02-15T04:59:11;100253.38;;;12.89;100.00
66664;BME280;59683;51.428;-1.994;2024-02-15T05:01:43;100248.06;;;12.89;100.00
66664;BME280;59683;51.428;-1.994;2024-02-15T05:04:12;100240.09;;;12.89;100.00
66664;BME280;59683;51.428;-1.994;2024-02-15T05:06:39;100247.09;;;12.91;100.00
66664;BME280;59683;51.428;-1.994;2024-02-15T05:09:04;100244.44;;;12.91;100.00
66664;BME280;59683;51.428;-1.994;2024-02-15T05:11:36;100253.78;;;12.95;100.00
66664;BME280;59683;51.428;-1.994;2024-02-15T05:14:04;100237.69;;;12.96;100.00
66664;BME280;59683;51.428;-1.994;2024-02-15T05:16:32;100244.84;;;12.96;100.00
66664;BME280;59683;51.428;-1.994;2024-02-15T05:18:58;100242.88;;;12.98;100.00
66664;BME280;59683;51.428;-1.994;2024-02-15T05:21:23;100243.84;;;12.97;100.00
66664;BME280;59683;51.428;-1.994;2024-02-15T05:23:49;100240.06;;;12.99;100.00
66664;BME280;59683;51.428;-1.994;2024-02-15T05:26:14;100233.75;;;13.00;100.00
66664;BME280;59683;51.428;-1.994;2024-02-15T05:28:42;100230.97;;;13.02;100.00
66664;BME280;59683;51.428;-1.994;2024-02-15T05:31:18;100227.16;;;13.04;100.00
66664;BME280;59683;51.428;-1.994;2024-02-15T05:33:51;100228.16;;;13.03;100.00
66664;BME280;59683;51.428;-1.994;2024-02-15T05:36:18;100220.63;;;12.99;100.00
66664;BME280;59683;51.428;-1.994;2024-02-15T05:38:50;100209.84;;;13.00;100.00
66664;BME280;59683;51.428;-1.994;2024-02-15T05:41:16;100213.75;;;13.06;100.00
66664;BME280;59683;51.428;-1.994;2024-02-15T05:43:42;100215.41;;;13.07;100.00
66664;BME280;59683;51.428;-1.994;2024-02-15T05:46:08;100214.03;;;13.03;100.00
66664;BME280;59683;51.428;-1.994;2024-02-15T05:48:35;100210.25;;;13.05;100.00
66664;BME280;59683;51.428;-1.994;2024-02-15T05:51:02;100211.22;;;13.04;100.00
66664;BME280;59683;51.428;-1.994;2024-02-15T05:53:29;100212.91;;;13.05;100.00
66664;BME280;59683;51.428;-1.994;2024-02-15T05:55:55;100205.53;;;12.99;100.00
66664;BME280;59683;51.428;-1.994;2024-02-15T05:58:23;100204.41;;;13.02;100.00
66664;BME280;59683;51.428;-1.994;2024-02-15T06:00:49;100198.38;;;13.00;100.00
66664;BME280;59683;51.428;-1.994;2024-02-15T06:03:16;100198.38;;;13.00;100.00
66664;BME280;59683;51.428;-1.994;2024-02-15T06:05:42;100196.03;;;12.97;100.00
66664;BME280;59683;51.428;-1.994;2024-02-15T06:08:07;100196.19;;;12.95;100.00
66664;BME280;59683;51.428;-1.994;2024-02-15T06:10:33;100199.66;;;12.96;100.00
66664;BME280;59683;51.428;-1.994;2024-02-15T06:12:58;100198.84;;;12.95;100.00
66664;BME280;59683;51.428;-1.994;2024-02-15T06:15:25;100199.84;;;12.94;100.00
66664;BME280;59683;51.428;-1.994;2024-02-15T06:17:50;100197.19;;;12.94;100.00
66664;BME280;59683;51.428;-1.994;2024-02-15T06:20:16;100195.34;;;12.95;100.00
66664;BME280;59683;51.428;-1.994;2024-02-15T06:22:50;100191.16;;;12.92;100.00
66664;BME280;59683;51.428;-1.994;2024-02-15T06:25:17;100197.00;;;12.96;100.00
66664;BME280;59683;51.428;-1.994;2024-02-15T06:27:45;100190.59;;;12.98;100.00
66664;BME280;59683;51.428;-1.994;2024-02-15T06:30:12;100185.28;;;12.98;100.00
66664;BME280;59683;51.428;-1.994;2024-02-15T06:32:57;100191.00;;;12.94;100.00
66664;BME280;59683;51.428;-1.994;2024-02-15T06:35:41;100189.34;;;12.93;100.00
66664;BME280;59683;51.428;-1.994;2024-02-15T06:38:26;100197.31;;;12.93;100.00
66664;BME280;59683;51.428;-1.994;2024-02-15T06:41:09;100190.88;;;12.95;100.00
66664;BME280;59683;51.428;-1.994;2024-02-15T06:43:35;100195.63;;;12.92;100.00
66664;BME280;59683;51.428;-1.994;2024-02-15T06:46:02;100194.66;;;12.93;100.00
66664;BME280;59683;51.428;-1.994;2024-02-15T06:48:28;100196.31;;;12.94;100.00
66664;BME280;59683;51.428;-1.994;2024-02-15T06:50:54;100193.56;;;12.85;100.00
66664;BME280;59683;51.428;-1.994;2024-02-15T06:53:19;100186.19;;;12.79;100.00
66664;BME280;59683;51.428;-1.994;2024-02-15T06:55:46;100188.59;;;12.73;100.00
66664;BME280;59683;51.428;-1.994;2024-02-15T06:58:17;100173.94;;;12.69;100.00
66664;BME280;59683;51.428;-1.994;2024-02-15T07:00:43;100165.72;;;12.62;100.00
66664;BME280;59683;51.428;-1.994;2024-02-15T07:03:08;100157.66;;;12.54;100.00
66664;BME280;59683;51.428;-1.994;2024-02-15T07:05:34;100153.75;;;12.48;100.00
66664;BME280;59683;51.428;-1.994;2024-02-15T07:08:00;100147.91;;;12.45;100.00
66664;BME280;59683;51.428;-1.994;2024-02-15T07:10:26;100134.94;;;12.42;100.00
66664;BME280;59683;51.428;-1.994;2024-02-15T07:12:51;100140.66;;;12.37;100.00
66664;BME280;59683;51.428;-1.994;2024-02-15T07:15:17;100129.38;;;12.25;100.00
66664;BME280;59683;51.428;-1.994;2024-02-15T07:17:42;100126.22;;;12.12;100.00
66664;BME280;59683;51.428;-1.994;2024-02-15T07:20:12;100113.69;;;11.95;100.00
66664;BME280;59683;51.428;-1.994;2024-02-15T07:22:42;100124.59;;;11.82;100.00
66664;BME280;59683;51.428;-1.994;2024-02-15T07:25:07;100115.25;;;11.68;100.00
66664;BME280;59683;51.428;-1.994;2024-02-15T07:27:34;100115.56;;;11.55;100.00
66664;BME280;59683;51.428;-1.994;2024-02-15T07:30:00;100122.66;;;11.45;100.00
66664;BME280;59683;51.428;-1.994;2024-02-15T07:32:25;100112.47;;;11.40;100.00
66664;BME280;59683;51.428;-1.994;2024-02-15T07:34:52;100106.63;;;11.37;100.00
66664;BME280;59683;51.428;-1.994;2024-02-15T07:37:17;100119.31;;;11.33;100.00
66664;BME280;59683;51.428;-1.994;2024-02-15T07:39:42;100124.88;;;11.30;100.00
66664;BME280;59683;51.428;-1.994;2024-02-15T07:42:08;100135.75;;;11.27;100.00
66664;BME280;59683;51.428;-1.994;2024-02-15T07:44:37;100149.56;;;11.21;100.00
66664;BME280;59683;51.428;-1.994;2024-02-15T07:47:03;100142.56;;;11.20;100.00
66664;BME280;59683;51.428;-1.994;2024-02-15T07:49:29;100153.59;;;11.15;100.00
66664;BME280;59683;51.428;-1.994;2024-02-15T07:51:55;100157.22;;;11.14;100.00
66664;BME280;59683;51.428;-1.994;2024-02-15T07:54:21;100142.31;;;11.13;100.00
66664;BME280;59683;51.428;-1.994;2024-02-15T07:56:50;100155.41;;;11.15;100.00
66664;BME280;59683;51.428;-1.994;2024-02-15T07:59:15;100160.13;;;11.11;100.00
66664;BME280;59683;51.428;-1.994;2024-02-15T08:01:47;100161.38;;;11.07;100.00
66664;BME280;59683;51.428;-1.994;2024-02-15T08:04:18;100162.22;;;11.08;100.00
66664;BME280;59683;51.428;-1.994;2024-02-15T08:06:43;100158.16;;;11.04;100.00
66664;BME280;59683;51.428;-1.994;2024-02-15T08:09:09;100151.31;;;11.01;100.00
66664;BME280;59683;51.428;-1.994;2024-02-15T08:11:41;100154.94;;;11.00;100.00
66664;BME280;59683;51.428;-1.994;2024-02-15T08:14:07;100149.81;;;10.99;100.00
66664;BME280;59683;51.428;-1.994;2024-02-15T08:16:36;100147.41;;;10.96;100.00
66664;BME280;59683;51.428;-1.994;2024-02-15T08:19:02;100146.84;;;10.92;100.00
66664;BME280;59683;51.428;-1.994;2024-02-15T08:21:31;100168.72;;;10.94;100.00
66664;BME280;59683;51.428;-1.994;2024-02-15T08:24:03;100161.78;;;11.03;100.00
66664;BME280;59683;51.428;-1.994;2024-02-15T08:26:36;100168.50;;;11.07;100.00
66664;BME280;59683;51.428;-1.994;2024-02-15T08:29:03;100158.88;;;11.06;100.00
66664;BME280;59683;51.428;-1.994;2024-02-15T08:31:29;100152.34;;;11.10;100.00
66664;BME280;59683;51.428;-1.994;2024-02-15T08:33:59;100162.63;;;11.13;100.00
66664;BME280;59683;51.428;-1.994;2024-02-15T08:36:25;100149.94;;;11.16;100.00
66664;BME280;59683;51.428;-1.994;2024-02-15T08:38:51;100143.13;;;11.24;100.00
66664;BME280;59683;51.428;-1.994;2024-02-15T08:41:16;100134.75;;;11.28;100.00
66664;BME280;59683;51.428;-1.994;2024-02-15T08:43:46;100129.91;;;11.33;100.00
66664;BME280;59683;51.428;-1.994;2024-02-15T08:46:14;100126.84;;;11.38;100.00
66664;BME280;59683;51.428;-1.994;2024-02-15T08:48:39;100129.34;;;11.39;100.00
66664;BME280;59683;51.428;-1.994;2024-02-15T08:51:06;100124.75;;;11.41;100.00
66664;BME280;59683;51.428;-1.994;2024-02-15T08:53:34;100111.50;;;11.41;100.00
66664;BME280;59683;51.428;-1.994;2024-02-15T08:56:02;100110.94;;;11.38;100.00
66664;BME280;59683;51.428;-1.994;2024-02-15T08:58:27;100096.84;;;11.37;100.00
66664;BME280;59683;51.428;-1.994;2024-02-15T09:00:55;100099.91;;;11.42;100.00
66664;BME280;59683;51.428;-1.994;2024-02-15T09:03:20;100090.03;;;11.45;100.00
66664;BME280;59683;51.428;-1.994;2024-02-15T09:05:46;100100.03;;;11.51;100.00
66664;BME280;59683;51.428;-1.994;2024-02-15T09:08:11;100089.59;;;11.59;100.00
66664;BME280;59683;51.428;-1.994;2024-02-15T09:10:37;100076.03;;;11.62;100.00
66664;BME280;59683;51.428;-1.994;2024-02-15T09:13:04;100074.38;;;11.61;100.00
66664;BME280;59683;51.428;-1.994;2024-02-15T09:15:31;100064.88;;;11.58;100.00
66664;BME280;59683;51.428;-1.994;2024-02-15T09:17:56;100058.63;;;11.59;100.00
66664;BME280;59683;51.428;-1.994;2024-02-15T09:20:23;100053.88;;;11.63;100.00
66664;BME280;59683;51.428;-1.994;2024-02-15T09:22:54;100051.91;;;11.65;100.00
66664;BME280;59683;51.428;-1.994;2024-02-15T09:25:21;100051.34;;;11.71;100.00
66664;BME280;59683;51.428;-1.994;2024-02-15T09:27:50;100043.66;;;11.78;100.00
66664;BME280;59683;51.428;-1.994;2024-02-15T09:30:16;100031.53;;;11.85;100.00
66664;BME280;59683;51.428;-1.994;2024-02-15T09:32:43;100039.25;;;12.06;100.00
66664;BME280;59683;51.428;-1.994;2024-02-15T09:35:09;100029.25;;;12.27;100.00
66664;BME280;59683;51.428;-1.994;2024-02-15T09:37:37;100026.50;;;12.47;100.00
66664;BME280;59683;51.428;-1.994;2024-02-15T09:40:08;100012.09;;;12.67;100.00
66664;BME280;59683;51.428;-1.994;2024-02-15T09:42:35;99999.91;;;12.74;100.00
66664;BME280;59683;51.428;-1.994;2024-02-15T09:45:02;99987.09;;;12.87;100.00
66664;BME280;59683;51.428;-1.994;2024-02-15T09:47:34;99981.50;;;12.91;100.00
66664;BME280;59683;51.428;-1.994;2024-02-15T09:50:01;99972.28;;;13.03;100.00
66664;BME280;59683;51.428;-1.994;2024-02-15T09:52:27;99985.34;;;13.14;100.00
66664;BME280;59683;51.428;-1.994;2024-02-15T09:54:57;99983.53;;;13.32;100.00
66664;BME280;59683;51.428;-1.994;2024-02-15T09:57:22;99983.09;;;13.45;100.00
66664;BME280;59683;51.428;-1.994;2024-02-15T09:59:48;99976.94;;;13.45;100.00
66664;BME280;59683;51.428;-1.994;2024-02-15T10:02:14;99972.47;;;13.45;100.00
66664;BME280;59683;51.428;-1.994;2024-02-15T10:04:40;99968.66;;;13.48;100.00
66664;BME280;59683;51.428;-1.994;2024-02-15T10:07:07;99966.56;;;13.33;100.00
66664;BME280;59683;51.428;-1.994;2024-02-15T10:09:34;99971.44;;;13.20;100.00
66664;BME280;59683;51.428;-1.994;2024-02-15T10:12:03;99974.72;;;13.14;100.00
66664;BME280;59683;51.428;-1.994;2024-02-15T10:14:32;99987.94;;;13.06;100.00
66664;BME280;59683;51.428;-1.994;2024-02-15T10:17:05;99983.22;;;13.00;100.00
66664;BME280;59683;51.428;-1.994;2024-02-15T10:19:32;99986.47;;;12.94;100.00
66664;BME280;59683;51.428;-1.994;2024-02-15T10:22:07;99976.53;;;12.96;100.00
66664;BME280;59683;51.428;-1.994;2024-02-15T10:24:32;99984.50;;;12.96;100.00
66664;BME280;59683;51.428;-1.994;2024-02-15T10:27:02;99982.69;;;12.96;100.00
66664;BME280;59683;51.428;-1.994;2024-02-15T10:29:38;99972.88;;;12.97;100.00
66664;BME280;59683;51.428;-1.994;2024-02-15T10:32:05;99971.16;;;13.05;100.00
66664;BME280;59683;51.428;-1.994;2024-02-15T10:34:43;99959.22;;;13.09;100.00
66664;BME280;59683;51.428;-1.994;2024-02-15T10:37:11;99946.13;;;13.16;100.00
66664;BME280;59683;51.428;-1.994;2024-02-15T10:39:37;99952.22;;;13.26;100.00
66664;BME280;59683;51.428;-1.994;2024-02-15T10:42:03;99946.31;;;13.32;100.00
66664;BME280;59683;51.428;-1.994;2024-02-15T10:44:28;99932.06;;;13.42;100.00
66664;BME280;59683;51.428;-1.994;2024-02-15T10:46:54;99921.28;;;13.43;100.00
66664;BME280;59683;51.428;-1.994;2024-02-15T10:49:24;99926.75;;;13.42;100.00
66664;BME280;59683;51.428;-1.994;2024-02-15T10:52:00;99919.47;;;13.44;100.00
66664;BME280;59683;51.428;-1.994;2024-02-15T10:54:52;99913.06;;;13.54;100.00
66664;BME280;59683;51.428;-1.994;2024-02-15T10:57:22;99918.25;;;13.72;100.00
66664;BME280;59683;51.428;-1.994;2024-02-15T10:59:57;99910.72;;;13.94;100.00
66664;BME280;59683;51.428;-1.994;2024-02-15T11:02:27;99917.59;;;14.21;100.00
66664;BME280;59683;51.428;-1.994;2024-02-15T11:04:54;99917.16;;;14.33;100.00
66664;BME280;59683;51.428;-1.994;2024-02-15T11:07:24;99904.59;;;14.52;100.00
66664;BME280;59683;51.428;-1.994;2024-02-15T11:09:51;99892.09;;;14.61;100.00
66664;BME280;59683;51.428;-1.994;2024-02-15T11:12:18;99895.59;;;14.69;100.00
66664;BME280;59683;51.428;-1.994;2024-02-15T11:14:46;99891.59;;;14.81;100.00
66664;BME280;59683;51.428;-1.994;2024-02-15T11:20:47;99881.72;;;15.15;100.00
66664;BME280;59683;51.428;-1.994;2024-02-15T11:23:23;99878.56;;;15.11;100.00
66664;BME280;59683;51.428;-1.994;2024-02-15T11:25:49;99872.41;;;15.27;100.00
66664;BME280;59683;51.428;-1.994;2024-02-15T11:30:46;99845.25;;;16.71;100.00
66664;BME280;59683;51.428;-1.994;2024-02-15T11:38:29;99843.88;;;19.22;100.00
66664;BME280;59683;51.428;-1.994;2024-02-15T11:46:08;99853.75;;;20.04;100.00
66664;BME280;59683;51.428;-1.994;2024-02-15T11:48:36;99844.97;;;20.44;100.00
66664;BME280;59683;51.428;-1.994;2024-02-15T11:51:04;99846.72;;;19.97;100.00
66664;BME280;59683;51.428;-1.994;2024-02-15T11:53:32;99838.19;;;20.54;100.00
66664;BME280;59683;51.428;-1.994;2024-02-15T11:56:01;99838.19;;;20.88;100.00
66664;BME280;59683;51.428;-1.994;2024-02-15T11:58:33;99828.41;;;21.20;100.00
66664;BME280;59683;51.428;-1.994;2024-02-15T12:01:17;99826.34;;;21.35;100.00
66664;BME280;59683;51.428;-1.994;2024-02-15T12:04:01;99828.44;;;20.93;100.00
66664;BME280;59683;51.428;-1.994;2024-02-15T12:06:45;99819.34;;;20.48;100.00
66664;BME280;59683;51.428;-1.994;2024-02-15T12:09:29;99817.69;;;20.40;100.00
66664;BME280;59683;51.428;-1.994;2024-02-15T12:12:13;99795.75;;;20.36;100.00
66664;BME280;59683;51.428;-1.994;2024-02-15T12:15:03;99798.69;;;20.61;100.00
66664;BME280;59683;51.428;-1.994;2024-02-15T12:17:47;99774.81;;;21.12;100.00
66664;BME280;59683;51.428;-1.994;2024-02-15T12:20:32;99786.59;;;21.82;100.00
66664;BME280;59683;51.428;-1.994;2024-02-15T12:22:57;99782.63;;;21.40;100.00
66664;BME280;59683;51.428;-1.994;2024-02-15T12:25:26;99779.22;;;20.33;100.00
66664;BME280;59683;51.428;-1.994;2024-02-15T12:27:56;99784.56;;;19.52;100.00
66664;BME280;59683;51.428;-1.994;2024-02-15T12:30:22;99773.81;;;19.04;100.00
66664;BME280;59683;51.428;-1.994;2024-02-15T12:32:48;99773.44;;;18.79;100.00
66664;BME280;59683;51.428;-1.994;2024-02-15T12:35:16;99772.19;;;18.75;100.00
66664;BME280;59683;51.428;-1.994;2024-02-15T12:37:47;99770.53;;;18.52;100.00
66664;BME280;59683;51.428;-1.994;2024-02-15T12:40:15;99785.75;;;18.02;100.00
66664;BME280;59683;51.428;-1.994;2024-02-15T12:42:45;99779.44;;;17.73;100.00
66664;BME280;59683;51.428;-1.994;2024-02-15T12:45:19;99779.63;;;17.72;100.00
66664;BME280;59683;51.428;-1.994;2024-02-15T12:47:55;99768.09;;;18.08;100.00
66664;BME280;59683;51.428;-1.994;2024-02-15T12:50:22;99766.72;;;18.89;100.00
66664;BME280;59683;51.428;-1.994;2024-02-15T12:52:50;99757.16;;;19.15;100.00